createdAt,value
2023-01-08T00:00:09.206Z,1001.71
2023-01-08T00:01:09.172Z,1001.73
2023-01-08T00:02:09.108Z,1001.64
2023-01-08T00:03:09.277Z,1001.63
2023-01-08T00:04:09.054Z,1001.61
2023-01-08T00:05:08.975Z,1001.58
2023-01-08T00:06:09.062Z,1001.55
2023-01-08T00:07:08.882Z,1001.54
2023-01-08T00:08:08.836Z,1001.48
2023-01-08T00:09:08.792Z,1001.51
2023-01-08T00:10:08.750Z,1001.48
2023-01-08T00:11:08.718Z,1001.44
2023-01-08T00:12:08.658Z,1001.45
2023-01-08T00:13:08.616Z,1001.38
2023-01-08T00:14:08.574Z,1001.31
2023-01-08T00:15:08.527Z,1001.31
2023-01-08T00:16:08.554Z,1001.29
2023-01-08T00:17:08.438Z,1001.27
2023-01-08T00:18:08.464Z,1001.28
2023-01-08T00:19:08.350Z,1001.26
2023-01-08T00:20:08.368Z,1001.27
2023-01-08T00:21:08.260Z,1001.31
2023-01-08T00:22:08.329Z,1001.28
2023-01-08T00:23:08.171Z,1001.21
2023-01-08T00:24:08.130Z,1001.25
2023-01-08T00:25:08.087Z,1001.31
2023-01-08T00:26:08.054Z,1001.33
2023-01-08T00:27:07.993Z,1001.36
2023-01-08T00:28:07.948Z,1001.30
2023-01-08T00:29:07.905Z,1001.29
2023-01-08T00:30:07.861Z,1001.25
2023-01-08T00:31:07.868Z,1001.28
2023-01-08T00:32:07.770Z,1001.19
2023-01-08T00:33:07.733Z,1001.23
2023-01-08T00:34:07.694Z,1001.22
2023-01-08T00:35:07.709Z,1001.16
2023-01-08T00:36:07.595Z,1001.14
2023-01-08T00:37:07.550Z,1001.14
2023-01-08T00:38:07.620Z,1001.22
2023-01-08T00:39:07.466Z,1001.15
2023-01-08T00:40:07.413Z,1001.15
2023-01-08T00:41:07.384Z,1001.12
2023-01-08T00:42:07.419Z,1001.14
2023-01-08T00:43:07.495Z,1001.12
2023-01-08T00:44:07.238Z,1001.15
2023-01-08T00:45:07.299Z,1001.17
2023-01-08T00:46:07.228Z,1001.16
2023-01-08T00:47:07.157Z,1001.15
2023-01-08T00:48:07.069Z,1001.19
2023-01-08T00:49:07.022Z,1001.19
2023-01-08T18:46:48.228Z,994.23
2023-01-08T18:47:47.100Z,994.19
2023-01-08T18:48:47.042Z,994.18
2023-01-08T18:49:46.989Z,994.14
2023-01-08T18:50:46.939Z,994.19
2023-01-08T18:51:46.891Z,994.18
2023-01-08T18:52:46.836Z,994.11
2023-01-08T18:53:46.806Z,994.13
2023-01-08T18:54:46.740Z,994.10
2023-01-08T18:55:46.707Z,994.08
2023-01-08T18:56:46.649Z,994.03
2023-01-08T18:57:46.600Z,994.12
2023-01-08T18:58:46.549Z,994.05
2023-01-08T18:59:46.498Z,994.05
2023-01-08T19:00:46.491Z,994.04
2023-01-08T19:01:46.518Z,994.06
2023-01-08T19:02:46.514Z,994.04
2023-01-08T19:03:46.310Z,994.04
2023-01-08T19:04:46.262Z,994.00
2023-01-08T19:05:46.220Z,994.05
2023-01-08T19:06:46.167Z,994.00
2023-01-08T19:07:46.128Z,994.02
2023-01-08T19:08:46.080Z,993.97
2023-01-08T19:09:46.036Z,993.96
2023-01-08T19:10:45.990Z,993.91
2023-01-08T19:11:45.947Z,993.90
2023-01-08T19:12:45.890Z,993.90
2023-01-08T19:13:45.854Z,993.95
2023-01-08T19:14:47.144Z,993.93
2023-01-08T19:15:45.754Z,993.91
2023-01-08T19:16:45.780Z,993.89
2023-01-08T19:17:45.725Z,993.87
2023-01-08T19:18:45.646Z,993.89
2023-01-08T19:19:45.624Z,993.86
2023-01-08T19:20:45.526Z,993.84
2023-01-08T19:21:45.527Z,993.83
2023-01-08T19:22:45.432Z,993.79
2023-01-08T19:23:45.424Z,993.80
2023-01-08T19:24:45.345Z,993.75
2023-01-08T19:25:45.308Z,993.76
2023-01-08T19:26:45.255Z,993.72
2023-01-08T19:27:45.310Z,993.66
2023-01-08T19:28:45.157Z,993.68
2023-01-08T19:29:45.115Z,993.67
2023-01-08T19:30:45.069Z,993.55
2023-01-08T19:31:45.051Z,993.52
2023-01-08T19:32:44.978Z,993.55
2023-01-08T19:33:44.936Z,993.50
2023-01-08T19:34:44.912Z,993.51
2023-01-08T19:35:44.839Z,993.46
2023-01-08T19:36:44.800Z,993.50
2023-01-08T19:37:44.749Z,993.47
2023-01-08T19:38:44.705Z,993.45
2023-01-08T19:39:44.659Z,993.48
2023-01-08T19:40:44.627Z,993.41
2023-01-08T19:41:44.569Z,993.38
2023-01-08T19:42:44.527Z,993.38
2023-01-08T19:43:44.501Z,993.32
2023-01-08T19:44:44.429Z,993.33
2023-01-08T19:45:44.439Z,993.34
2023-01-08T19:46:44.342Z,993.28
2023-01-08T19:47:44.302Z,993.30
2023-01-08T19:48:44.263Z,993.22
2023-01-08T19:49:44.205Z,993.22
2023-01-08T19:50:44.179Z,993.25
2023-01-08T19:51:44.117Z,993.22
2023-01-08T19:52:44.076Z,993.21
2023-01-08T19:53:44.030Z,993.17
2023-01-08T19:54:43.979Z,993.16
2023-01-08T19:55:43.933Z,993.17
2023-01-08T19:56:43.886Z,993.14
2023-01-08T19:57:43.847Z,993.08
2023-01-08T19:58:43.803Z,993.14
2023-01-08T19:59:43.758Z,993.10
2023-01-08T20:00:43.739Z,993.08
2023-01-08T20:01:43.691Z,993.07
2023-01-08T20:02:43.671Z,993.08
2023-01-08T20:03:43.578Z,993.13
2023-01-08T20:04:43.528Z,993.13
2023-01-08T20:05:43.487Z,993.10
2023-01-08T20:06:43.464Z,993.08
2023-01-08T20:07:43.393Z,993.06
2023-01-08T20:08:46.069Z,993.09
2023-01-08T20:09:43.303Z,993.03
2023-01-08T20:10:43.305Z,993.02
2023-01-08T20:11:43.213Z,993.02
2023-01-08T20:12:43.201Z,992.99
2023-01-08T20:13:43.127Z,992.94
2023-01-08T20:14:43.078Z,992.91
2023-01-08T20:15:43.033Z,992.98
2023-01-08T20:16:42.986Z,993.02
2023-01-08T20:17:42.946Z,993.01
2023-01-08T20:18:42.901Z,993.01
2023-01-08T20:19:42.850Z,992.97
2023-01-08T20:20:42.807Z,992.96
2023-01-08T20:21:42.767Z,992.95
2023-01-08T20:22:42.800Z,992.99
2023-01-08T20:23:42.675Z,993.01
2023-01-08T20:24:42.639Z,993.00
2023-01-08T20:25:42.580Z,992.91
2023-01-08T20:26:42.549Z,992.90
2023-01-08T20:27:42.493Z,992.85
2023-01-08T20:28:42.479Z,992.88
2023-01-08T20:29:42.397Z,992.86
2023-01-08T20:30:42.353Z,992.83
2023-01-08T20:31:42.340Z,992.81
2023-01-08T20:32:42.297Z,992.84
2023-01-08T20:33:42.255Z,992.81
2023-01-08T20:34:42.208Z,992.80
2023-01-08T20:35:42.130Z,992.79
2023-01-08T20:36:42.153Z,992.81
2023-01-08T20:37:42.039Z,992.85
2023-01-08T20:38:42.138Z,992.83
2023-01-08T20:39:41.955Z,992.79
2023-01-08T20:40:41.924Z,992.79
2023-01-08T20:41:46.695Z,992.79
2023-01-08T20:42:41.818Z,992.75
2023-01-08T20:43:41.772Z,992.77
2023-01-08T20:44:41.851Z,992.77
2023-01-08T20:45:41.750Z,992.71
2023-01-08T20:46:41.633Z,992.67
2023-01-08T20:47:41.602Z,992.66
2023-01-08T20:48:46.915Z,992.69
2023-01-08T20:49:41.501Z,992.75
2023-01-08T20:50:41.451Z,992.68
2023-01-08T20:51:44.067Z,992.68
2023-01-08T20:52:41.364Z,992.67
2023-01-08T20:53:41.315Z,992.71
2023-01-08T20:54:41.300Z,992.62
2023-01-08T20:55:41.242Z,992.63
2023-01-08T20:56:41.197Z,992.59
2023-01-08T20:57:41.137Z,992.58
2023-01-08T20:58:41.095Z,992.60
2023-01-08T20:59:41.045Z,992.56
2023-01-08T21:00:41.032Z,992.56
2023-01-08T21:01:40.998Z,992.58
2023-01-08T21:02:40.923Z,992.42
2023-01-08T21:03:40.871Z,992.49
2023-01-08T21:04:40.821Z,992.42
2023-01-08T21:05:40.777Z,992.39
2023-01-08T21:06:40.735Z,992.31
2023-01-08T21:07:40.685Z,992.34
2023-01-08T21:08:40.644Z,992.37
2023-01-08T21:09:40.594Z,992.32
2023-01-08T21:10:40.587Z,992.29
2023-01-08T21:11:40.557Z,992.27
2023-01-08T21:12:40.461Z,992.23
2023-01-08T21:13:40.432Z,992.29
2023-01-08T21:14:40.369Z,992.23
2023-01-08T21:15:40.326Z,992.20
2023-01-08T21:16:40.541Z,992.23
2023-01-08T21:17:40.314Z,992.28
2023-01-08T21:18:40.191Z,992.23
2023-01-08T21:19:40.144Z,992.23
2023-01-08T21:20:40.100Z,992.15
2023-01-08T21:21:41.036Z,992.22
2023-01-08T21:22:40.009Z,992.19
2023-01-08T21:23:39.967Z,992.14
2023-01-08T21:24:39.918Z,992.08
2023-01-08T21:25:39.885Z,992.09
2023-01-08T21:26:39.861Z,992.07
2023-01-08T21:27:39.800Z,992.05
2023-01-08T21:28:39.739Z,992.08
2023-01-08T21:29:39.696Z,992.00
2023-01-08T21:30:39.824Z,992.03
2023-01-08T21:31:39.689Z,991.99
2023-01-08T21:32:39.559Z,991.97
2023-01-08T21:33:39.528Z,991.97
2023-01-08T21:34:39.468Z,991.90
2023-01-08T21:35:39.430Z,991.87
2023-01-08T21:36:39.440Z,991.92
2023-01-08T21:37:39.337Z,991.93
2023-01-08T21:38:39.304Z,991.90
2023-01-08T21:39:39.263Z,991.81
2023-01-08T21:40:39.210Z,991.80
2023-01-08T21:41:39.167Z,991.82
2023-01-08T21:42:39.133Z,991.72
2023-01-08T21:43:39.073Z,991.78
2023-01-08T21:44:39.117Z,991.72
2023-01-08T21:45:39.129Z,991.79
2023-01-08T21:46:38.936Z,991.75
2023-01-08T21:47:38.894Z,991.78
2023-01-08T21:48:38.851Z,991.76
2023-01-08T21:49:38.800Z,991.73
2023-01-08T21:50:38.751Z,991.72
2023-01-08T21:51:38.812Z,991.72
2023-01-08T21:52:38.659Z,991.64
2023-01-08T21:53:38.647Z,991.64
2023-01-08T21:54:38.571Z,991.60
2023-01-08T21:55:38.527Z,991.58
2023-01-08T21:56:38.479Z,991.57
2023-01-08T21:57:38.436Z,991.58
2023-01-08T21:58:38.410Z,991.56
2023-01-08T21:59:38.354Z,991.53
2023-01-08T22:00:38.334Z,991.55
2023-01-08T22:01:38.321Z,991.54
2023-01-08T22:02:38.228Z,991.54
2023-01-08T22:03:38.240Z,991.49
2023-01-08T22:04:38.122Z,991.49
2023-01-08T22:05:38.086Z,991.47
2023-01-08T22:06:38.033Z,991.38
2023-01-08T22:07:37.990Z,991.41
2023-01-08T22:08:38.042Z,991.37
2023-01-08T22:09:38.007Z,991.40
2023-01-08T22:10:37.851Z,991.35
2023-01-08T22:11:37.904Z,991.32
2023-01-08T22:12:37.761Z,991.35
2023-01-08T22:13:37.729Z,991.37
2023-01-08T22:14:37.698Z,991.33
2023-01-08T22:15:37.712Z,991.32
2023-01-08T22:16:37.675Z,991.26
2023-01-08T22:17:37.537Z,991.26
2023-01-08T22:18:37.492Z,991.21
2023-01-08T22:19:37.498Z,991.22
2023-01-08T22:20:37.400Z,991.21
2023-01-08T22:21:37.358Z,991.20
2023-01-08T22:22:37.312Z,991.22
2023-01-08T22:23:37.287Z,991.21
2023-01-08T22:24:37.231Z,991.19
2023-01-08T22:25:37.189Z,991.11
2023-01-08T22:26:37.140Z,991.15
2023-01-08T22:27:37.095Z,991.13
2023-01-08T22:28:37.045Z,991.15
2023-01-08T22:29:37.001Z,991.10
2023-01-08T22:30:36.972Z,991.15
2023-01-08T22:31:36.902Z,991.10
2023-01-08T22:32:36.856Z,991.09
2023-01-08T22:33:36.817Z,991.07
2023-01-08T22:34:36.768Z,991.09
2023-01-08T22:35:36.733Z,991.03
2023-01-08T22:36:36.729Z,991.02
2023-01-08T22:37:36.658Z,990.97
2023-01-08T22:38:36.597Z,991.03
2023-01-08T22:39:36.556Z,990.98
2023-01-08T22:40:36.521Z,990.97
2023-01-08T22:41:36.455Z,990.97
2023-01-08T22:42:36.436Z,990.93
2023-01-08T22:43:36.365Z,990.93
2023-01-08T22:44:36.322Z,990.95
2023-01-08T22:45:36.434Z,990.93
2023-01-08T22:46:36.252Z,990.90
2023-01-08T22:47:36.185Z,990.87
2023-01-08T22:48:36.140Z,990.89
2023-01-08T22:49:36.095Z,990.91
2023-01-08T22:50:36.053Z,990.89
2023-01-08T22:51:36.068Z,990.91
2023-01-08T22:52:35.983Z,990.87
2023-01-08T22:53:35.923Z,990.86
2023-01-08T22:54:35.899Z,990.88
2023-01-08T22:55:35.842Z,990.83
2023-01-08T22:56:35.876Z,990.81
2023-01-08T22:57:35.785Z,990.81
2023-01-08T22:58:35.995Z,990.81
2023-01-08T22:59:35.646Z,990.84
2023-01-08T23:00:35.606Z,990.80
2023-01-08T23:01:35.771Z,990.80
2023-01-08T23:02:35.622Z,990.77
2023-01-08T23:03:35.512Z,990.78
2023-01-08T23:04:35.520Z,990.77
